METAR Data
IDs: Format: Raw Decoded Include TAF

Data at: 1818 UTC 06 Jul 2020

KAEL 061755Z AUTO 00000KT 10SM CLR 27/21 A3002 RMK AO2
KAEL 061735Z AUTO 00000KT 10SM CLR 28/20 A3002 RMK AO2
KAEL 061715Z AUTO 00000KT 10SM CLR 28/20 A3001 RMK AO2
KAEL 061656Z AUTO 17003KT 10SM CLR 27/19 A3000 RMK AO2
KAEL 061655Z AUTO 17004KT 10SM CLR 27/19 A3000 RMK AO2
KAEL 061635Z AUTO 17005KT 10SM CLR 28/19 A2998 RMK AO2 LTG DSNT SW
KAEL 061615Z AUTO 12011G16KT 10SM CLR 28/19 A2996 RMK AO2
KAEL 061555Z AUTO 14008KT 10SM CLR 27/19 A2998 RMK AO2
KAEL 061536Z AUTO 21004KT 10SM CLR 27/19 A3001 RMK AO2
KAEL 061535Z AUTO 21005KT 10SM CLR 27/19 A3001 RMK AO2
KAEL 061515Z AUTO 00000KT 10SM CLR 26/19 A3001 RMK AO2
KAEL 061456Z AUTO 27004KT 10SM CLR 26/19 A3002 RMK AO2
KAEL 061455Z AUTO 27004KT 10SM CLR 26/19 A3002 RMK AO2
KAEL 061435Z AUTO 25004KT 10SM CLR 26/19 A3004 RMK AO2
KAEL 061415Z AUTO 28005KT 10SM CLR 26/20 A3005 RMK AO2
KAEL 061355Z AUTO 30006KT 10SM CLR 24/19 A3004 RMK AO2
KAEL 061336Z AUTO 27004KT 10SM CLR 23/20 A3005 RMK AO2 LTG DSNT N
KAEL 061335Z AUTO 27005KT 10SM CLR 23/20 A3005 RMK AO2 LTG DSNT N
KAEL 061315Z AUTO 30004KT 10SM CLR 24/20 A3004 RMK AO2
KAEL 061256Z AUTO 30005KT 10SM CLR 24/21 A3003 RMK AO2 LTG DSNT NW
KAEL 061255Z AUTO 30004KT 10SM CLR 24/21 A3003 RMK AO2
KAEL 061235Z AUTO 29004KT 10SM CLR 24/20 A3002 RMK AO2
KAEL 061215Z AUTO 26006KT 10SM SCT050 SCT080 23/20 A3002 RMK AO2
KAEL 061155Z AUTO 24004KT 10SM SCT080 24/19 A3002 RMK AO2 LTG DSNT NW
KAEL 061135Z AUTO 23004KT 10SM CLR 23/19 A3002 RMK AO2 LTG DSNT S AND SW
KAEL 061116Z AUTO 22003KT 10SM CLR 22/19 A3001 RMK AO2 LTG DSNT SW
KAEL 061115Z AUTO 23004KT 10SM CLR 22/19 A3001 RMK AO2 LTG DSNT SW
KAEL 061056Z AUTO 00000KT 10SM CLR 22/19 A3001 RMK AO2 LTG DSNT W
KAEL 061055Z AUTO 00000KT 10SM CLR 22/19 A3001 RMK AO2 LTG DSNT W
KAEL 061035Z AUTO 00000KT 10SM CLR 22/19 A3000 RMK AO2
KAEL 061016Z AUTO 00000KT 10SM CLR 22/19 A3000 RMK AO2
KAEL 061015Z AUTO 00000KT 10SM CLR 22/19 A3000 RMK AO2
KAEL 060956Z AUTO 00000KT 10SM CLR 22/19 A3000 RMK AO2
KAEL 060955Z AUTO 00000KT 10SM CLR 22/19 A3000 RMK AO2
KAEL 060935Z AUTO 00000KT 10SM CLR 20/19 A2999 RMK AO2
KAEL 060915Z AUTO 00000KT 10SM CLR 21/19 A2998 RMK AO2
KAEL 060855Z AUTO 00000KT 10SM CLR 22/19 A2997 RMK AO2 LTG DSNT W
KAEL 060835Z AUTO 19003KT 10SM CLR 21/19 A2998 RMK AO2
KAEL 060816Z AUTO 00000KT 10SM CLR 21/19 A2998 RMK AO2 LTG DSNT W
KAEL 060815Z AUTO 00000KT 10SM CLR 21/19 A2998 RMK AO2 LTG DSNT W
KAEL 060756Z AUTO 00000KT 10SM CLR 21/19 A2998 RMK AO2 LTG DSNT W
KAEL 060755Z AUTO 00000KT 10SM CLR 21/19 A2999 RMK AO2 LTG DSNT W
KAEL 060736Z AUTO 00000KT 10SM CLR 20/19 A2999 RMK AO2
KAEL 060735Z AUTO 00000KT 10SM CLR 20/19 A2999 RMK AO2
KAEL 060716Z AUTO 00000KT 10SM CLR 21/19 A3000 RMK AO2
KAEL 060715Z AUTO 00000KT 10SM CLR 21/19 A3000 RMK AO2
KAEL 060655Z AUTO 00000KT 10SM CLR 21/19 A3000 RMK AO2
KAEL 060635Z AUTO 00000KT 10SM CLR 21/19 A3000 RMK AO2
KAEL 060615Z AUTO 00000KT 10SM CLR 21/19 A3001 RMK AO2
KAEL 060555Z AUTO 00000KT 10SM CLR 21/19 A3000 RMK AO2
KAEL 060536Z AUTO 00000KT 10SM CLR 23/20 A3000 RMK AO2
KAEL 060535Z AUTO 00000KT 10SM CLR 23/20 A3000 RMK AO2
KAEL 060516Z AUTO 00000KT 10SM CLR 23/20 A2999 RMK AO2
KAEL 060515Z AUTO 00000KT 10SM CLR 24/20 A2999 RMK AO2
KAEL 060456Z AUTO 00000KT 10SM CLR 23/21 A2999 RMK AO2
KAEL 060455Z AUTO 20003KT 10SM CLR 23/21 A2999 RMK AO2
KAEL 060436Z AUTO 00000KT 10SM CLR 22/20 A2999 RMK AO2
KAEL 060435Z AUTO 00000KT 10SM CLR 22/21 A2998 RMK AO2
KAEL 060416Z AUTO 00000KT 10SM CLR 23/20 A2998 RMK AO2
KAEL 060415Z AUTO 00000KT 10SM CLR 23/20 A2998 RMK AO2
KAEL 060355Z AUTO 00000KT 10SM CLR 24/20 A2998 RMK AO2
KAEL 060335Z AUTO 15003KT 10SM CLR 24/20 A2998 RMK AO2
KAEL 060315Z AUTO 00000KT 10SM CLR 24/20 A2998 RMK AO2
KAEL 060255Z AUTO 00000KT 10SM CLR 25/21 A2998 RMK AO2
KAEL 060235Z AUTO 00000KT 10SM CLR 25/21 A2998 RMK AO2
KAEL 060215Z AUTO 00000KT 10SM CLR 26/21 A2997 RMK AO2
KAEL 060155Z AUTO 00000KT 10SM CLR 26/21 A2997 RMK AO2
KAEL 060136Z AUTO 00000KT 10SM CLR 27/21 A2997 RMK AO2
KAEL 060135Z AUTO 00000KT 10SM CLR 27/21 A2997 RMK AO2
KAEL 060116Z AUTO 00000KT 10SM CLR 28/20 A2997 RMK AO2
KAEL 060115Z AUTO 00000KT 10SM CLR 28/20 A2997 RMK AO2
KAEL 060056Z AUTO 00000KT 10SM CLR 29/19 A2996 RMK AO2
KAEL 060055Z AUTO 00000KT 10SM CLR 29/19 A2996 RMK AO2
KAEL 060035Z AUTO 23003KT 10SM CLR 29/19 A2996 RMK AO2